Pacific Dawn — 2AGH7 — position and weather

sailwx.info

Track history (hours):
 
Tides and Currents Weather Stations Pressure Air Temp Water Temp Dewpoint Dewpoint Depression Visibility Wind Speed Wind Dir Waves Ship Positions

Pacific Dawn

Last reported at 2017-Jan-21 11:07 UTC. Time now 2017-Jan-21 15:35 UTC.
Position S 26°39' E 153°19'.

Length 245 m; draft 8.3 m.

Type: Passenger vessel. MMSI: 235059368.

Date/timePositionNaut miles runAvg speedWind from/ knotsBaromVisibWave heightAir tempDewpointWater temp
2017-Jan-21 11:07S 26°39' E 153°19'611.6
2017-Jan-21 10:33S 26°41' E 153°13'1212.1
2017-Jan-21 09:33S 26°53' E 153°10'1716.5
2017-Jan-21 08:33S 27°07' E 153°20'1514.7
2017-Jan-21 07:34S 27°20' E 153°12'9 8.9
2017-Jan-21 06:33S 27°27' E 153°06'2 1.6
2017-Jan-21 05:31S 27°26' E 153°04'0 0.0
2017-Jan-21 04:25S 27°26' E 153°04'0 0.0
2017-Jan-21 03:31S 27°26' E 153°04'0 0.0
2017-Jan-21 02:31S 27°26' E 153°04'0 0.0
2017-Jan-21 01:28S 27°26' E 153°04'0 0.0
2017-Jan-21 00:28S 27°26' E 153°04'0 0.0
2017-Jan-20 23:31S 27°26' E 153°04'0 0.0
2017-Jan-20 22:22S 27°26' E 153°04'0 0.0
2017-Jan-20 21:31S 27°26' E 153°04'0 0.0
2017-Jan-20 20:31S 27°26' E 153°04'0 0.0
2017-Jan-20 19:33S 27°26' E 153°04'5 4.9
2017-Jan-20 18:33S 27°24' E 153°09'1111.3
2017-Jan-20 17:33S 27°16' E 153°17'1413.7
2017-Jan-20 16:33S 27°02' E 153°15'1914.3
2017-Jan-20 15:12S 26°43' E 153°11'813.1
2017-Jan-20 14:33S 26°40' E 153°20'1515.0
2017-Jan-20 13:33S 26°34' E 153°36'1716.4
2017-Jan-20 12:31S 26°24' E 153°51'39918.5
2017-Jan-19 15:00S 22°18' E 159°36'43517.4 060 / 81008.310.8 25.020.427.0
2017-Jan-18 14:00S 18°06' E 165°54'260 5.2 140 / 151007.810.8 27.021.029.0
2017-Jan-16 11:33S 22°23' E 166°40'1514.7
2017-Jan-16 10:33S 22°17' E 166°25'2 1.7
2017-Jan-16 09:30S 22°16' E 166°26'0 0.0
2017-Jan-16 08:30S 22°16' E 166°26'0 0.0
2017-Jan-16 07:30S 22°16' E 166°26'0 0.0
2017-Jan-16 06:30S 22°16' E 166°26'0 0.0
2017-Jan-16 05:30S 22°16' E 166°26'0 0.0
2017-Jan-16 04:30S 22°16' E 166°26'2 1.9
2017-Jan-16 03:33S 22°17' E 166°25'1313.2
2017-Jan-16 02:33S 22°24' E 166°12'21717.3
2017-Jan-15 14:00S 23°36' E 162°30'43518.9 100 / 121009.010.8 26.023.827.0
2017-Jan-14 15:00S 26°06' E 155°00'4216.9 350 / 261007.110.8 26.024.628.0
2017-Jan-14 12:32S 26°21' E 154°17'1818.2
2017-Jan-14 11:33S 26°28' E 153°58'1818.4
2017-Jan-14 10:33S 26°34' E 153°39'1818.3
2017-Jan-14 09:33S 26°42' E 153°20'1111.4
2017-Jan-14 08:33S 26°49' E 153°10'1514.6
2017-Jan-14 07:33S 27°03' E 153°16'1313.5
2017-Jan-14 06:33S 27°16' E 153°17'1211.9
2017-Jan-14 05:33S 27°25' E 153°09'4 3.9
2017-Jan-14 04:28S 27°26' E 153°04'0 0.0
2017-Jan-14 03:28S 27°26' E 153°04'0 0.0
2017-Jan-13 23:28S 27°26' E 153°04'0 0.0
2017-Jan-13 22:28S 27°26' E 153°04'0 0.0
2017-Jan-13 21:28S 27°26' E 153°04'0 0.0
2017-Jan-13 20:28S 27°26' E 153°04'0 0.0
2017-Jan-13 19:28S 27°26' E 153°04'0 0.0
2017-Jan-13 18:28S 27°26' E 153°04'0 0.5
2017-Jan-13 17:33S 27°27' E 153°04'6 6.5
2017-Jan-13 16:33S 27°22' E 153°10'1313.5
2017-Jan-13 15:33S 27°13' E 153°20'1414.2
2017-Jan-13 14:33S 26°60' E 153°14'1413.6
2017-Jan-13 13:33S 26°46' E 153°11'10 9.8
2017-Jan-13 12:32S 26°40' E 153°20'1313.0
2017-Jan-13 11:33S 26°36' E 153°34'1313.1
2017-Jan-13 10:34S 26°28' E 153°45'1413.6
2017-Jan-13 09:33S 26°20' E 153°57'1514.6
2017-Jan-13 08:32S 26°11' E 154°11'1818.0
2017-Jan-13 07:31S 25°60' E 154°27'1818.2
2017-Jan-13 06:33S 25°49' E 154°43'2318.6
2017-Jan-13 05:18S 25°35' E 155°03'1818.5
2017-Jan-13 04:20S 25°24' E 155°19'  
Track history (hours):
 
Tides and Currents Weather Stations Pressure Air Temp Water Temp Dewpoint Dewpoint Depression Visibility Wind Speed Wind Dir Waves Ship Positions

Pacific Dawn

Last reported at 2017-Jan-21 11:07 UTC. Time now 2017-Jan-21 15:35 UTC.
Position S 26°39' E 153°19'.

Length 245 m; draft 8.3 m.

Type: Passenger vessel. MMSI: 235059368.

Date/timePositionNaut miles runAvg speedWind from/ knotsBaromVisibWave heightAir tempDewpointWater temp
2017-Jan-21 11:07S 26°39' E 153°19'611.6
2017-Jan-21 10:33S 26°41' E 153°13'1212.1
2017-Jan-21 09:33S 26°53' E 153°10'1716.5
2017-Jan-21 08:33S 27°07' E 153°20'1514.7
2017-Jan-21 07:34S 27°20' E 153°12'9 8.9
2017-Jan-21 06:33S 27°27' E 153°06'2 1.6
2017-Jan-21 05:31S 27°26' E 153°04'0 0.0
2017-Jan-21 04:25S 27°26' E 153°04'0 0.0
2017-Jan-21 03:31S 27°26' E 153°04'0 0.0
2017-Jan-21 02:31S 27°26' E 153°04'0 0.0
2017-Jan-21 01:28S 27°26' E 153°04'0 0.0
2017-Jan-21 00:28S 27°26' E 153°04'0 0.0
2017-Jan-20 23:31S 27°26' E 153°04'0 0.0
2017-Jan-20 22:22S 27°26' E 153°04'0 0.0
2017-Jan-20 21:31S 27°26' E 153°04'0 0.0
2017-Jan-20 20:31S 27°26' E 153°04'0 0.0
2017-Jan-20 19:33S 27°26' E 153°04'5 4.9
2017-Jan-20 18:33S 27°24' E 153°09'1111.3
2017-Jan-20 17:33S 27°16' E 153°17'1413.7
2017-Jan-20 16:33S 27°02' E 153°15'1914.3
2017-Jan-20 15:12S 26°43' E 153°11'813.1
2017-Jan-20 14:33S 26°40' E 153°20'1515.0
2017-Jan-20 13:33S 26°34' E 153°36'1716.4
2017-Jan-20 12:31S 26°24' E 153°51'39918.5
2017-Jan-19 15:00S 22°18' E 159°36'43517.4 060 / 81008.310.8 25.020.427.0
2017-Jan-18 14:00S 18°06' E 165°54'260 5.2 140 / 151007.810.8 27.021.029.0
2017-Jan-16 11:33S 22°23' E 166°40'1514.7
2017-Jan-16 10:33S 22°17' E 166°25'2 1.7
2017-Jan-16 09:30S 22°16' E 166°26'0 0.0
2017-Jan-16 08:30S 22°16' E 166°26'0 0.0
2017-Jan-16 07:30S 22°16' E 166°26'0 0.0
2017-Jan-16 06:30S 22°16' E 166°26'0 0.0
2017-Jan-16 05:30S 22°16' E 166°26'0 0.0
2017-Jan-16 04:30S 22°16' E 166°26'2 1.9
2017-Jan-16 03:33S 22°17' E 166°25'1313.2
2017-Jan-16 02:33S 22°24' E 166°12'21717.3
2017-Jan-15 14:00S 23°36' E 162°30'43518.9 100 / 121009.010.8 26.023.827.0
2017-Jan-14 15:00S 26°06' E 155°00'4216.9 350 / 261007.110.8 26.024.628.0
2017-Jan-14 12:32S 26°21' E 154°17'1818.2
2017-Jan-14 11:33S 26°28' E 153°58'1818.4
2017-Jan-14 10:33S 26°34' E 153°39'1818.3
2017-Jan-14 09:33S 26°42' E 153°20'1111.4
2017-Jan-14 08:33S 26°49' E 153°10'1514.6
2017-Jan-14 07:33S 27°03' E 153°16'1313.5
2017-Jan-14 06:33S 27°16' E 153°17'1211.9
2017-Jan-14 05:33S 27°25' E 153°09'4 3.9
2017-Jan-14 04:28S 27°26' E 153°04'0 0.0
2017-Jan-14 03:28S 27°26' E 153°04'0 0.0
2017-Jan-13 23:28S 27°26' E 153°04'0 0.0
2017-Jan-13 22:28S 27°26' E 153°04'0 0.0
2017-Jan-13 21:28S 27°26' E 153°04'0 0.0
2017-Jan-13 20:28S 27°26' E 153°04'0 0.0
2017-Jan-13 19:28S 27°26' E 153°04'0 0.0
2017-Jan-13 18:28S 27°26' E 153°04'0 0.5
2017-Jan-13 17:33S 27°27' E 153°04'6 6.5
2017-Jan-13 16:33S 27°22' E 153°10'1313.5
2017-Jan-13 15:33S 27°13' E 153°20'1414.2
2017-Jan-13 14:33S 26°60' E 153°14'1413.6
2017-Jan-13 13:33S 26°46' E 153°11'10 9.8
2017-Jan-13 12:32S 26°40' E 153°20'1313.0
2017-Jan-13 11:33S 26°36' E 153°34'1313.1
2017-Jan-13 10:34S 26°28' E 153°45'1413.6
2017-Jan-13 09:33S 26°20' E 153°57'1514.6
2017-Jan-13 08:32S 26°11' E 154°11'1818.0
2017-Jan-13 07:31S 25°60' E 154°27'1818.2
2017-Jan-13 06:33S 25°49' E 154°43'2318.6
2017-Jan-13 05:18S 25°35' E 155°03'1818.5
2017-Jan-13 04:20S 25°24' E 155°19'  

Dump ship's entire track history